sensor_id;sensor_type;location;lat;lon;timestamp;pressure;altitude;pressure_sealevel;temperature;humidity
56414;BME280;42318;48.452;19.526;2022-08-19T00:03:30;97964.78;;;26.13;51.21
56414;BME280;42318;48.452;19.526;2022-08-19T00:11:01;97960.94;;;26.14;50.90
56414;BME280;42318;48.452;19.526;2022-08-19T00:18:33;97960.75;;;26.10;51.66
56414;BME280;42318;48.452;19.526;2022-08-19T00:26:04;97952.81;;;26.09;51.90
56414;BME280;42318;48.452;19.526;2022-08-19T00:33:36;97932.09;;;26.03;51.91
56414;BME280;42318;48.452;19.526;2022-08-19T00:41:07;97943.88;;;26.03;51.86
56414;BME280;42318;48.452;19.526;2022-08-19T00:48:39;97933.91;;;26.07;51.90
56414;BME280;42318;48.452;19.526;2022-08-19T00:56:10;97929.53;;;26.06;52.07
56414;BME280;42318;48.452;19.526;2022-08-19T01:03:40;97931.97;;;26.08;51.66
56414;BME280;42318;48.452;19.526;2022-08-19T01:11:11;97934.72;;;26.08;51.84
56414;BME280;42318;48.452;19.526;2022-08-19T01:18:42;97923.31;;;26.01;51.71
56414;BME280;42318;48.452;19.526;2022-08-19T01:26:20;97922.09;;;26.07;51.71
56414;BME280;42318;48.452;19.526;2022-08-19T01:33:54;97913.38;;;26.05;51.79
56414;BME280;42318;48.452;19.526;2022-08-19T01:41:26;97907.56;;;26.06;51.64
56414;BME280;42318;48.452;19.526;2022-08-19T01:48:57;97907.88;;;26.05;51.78
56414;BME280;42318;48.452;19.526;2022-08-19T01:56:27;97908.19;;;26.03;51.65
56414;BME280;42318;48.452;19.526;2022-08-19T02:03:58;97920.78;;;26.04;51.38
56414;BME280;42318;48.452;19.526;2022-08-19T02:11:33;97912.25;;;26.06;51.24
56414;BME280;42318;48.452;19.526;2022-08-19T02:19:04;97904.00;;;26.06;51.05
56414;BME280;42318;48.452;19.526;2022-08-19T02:26:35;97896.09;;;26.04;51.02
56414;BME280;42318;48.452;19.526;2022-08-19T02:34:06;97898.91;;;25.99;51.02
56414;BME280;42318;48.452;19.526;2022-08-19T02:41:37;97907.38;;;26.03;51.08
56414;BME280;42318;48.452;19.526;2022-08-19T02:49:08;97902.47;;;25.99;51.02
56414;BME280;42318;48.452;19.526;2022-08-19T02:56:40;97897.81;;;26.00;51.27
56414;BME280;42318;48.452;19.526;2022-08-19T03:04:13;97904.84;;;25.92;51.18
56414;BME280;42318;48.452;19.526;2022-08-19T03:11:45;97914.56;;;25.98;51.39
56414;BME280;42318;48.452;19.526;2022-08-19T03:19:17;97910.00;;;25.94;51.95
56414;BME280;42318;48.452;19.526;2022-08-19T03:26:53;97916.63;;;25.93;51.31
56414;BME280;42318;48.452;19.526;2022-08-19T03:34:29;97939.72;;;25.92;51.20
56414;BME280;42318;48.452;19.526;2022-08-19T03:42:01;97926.91;;;25.87;51.33
56414;BME280;42318;48.452;19.526;2022-08-19T03:49:33;97949.38;;;25.89;51.21
56414;BME280;42318;48.452;19.526;2022-08-19T03:57:06;97951.00;;;25.90;50.86
56414;BME280;42318;48.452;19.526;2022-08-19T04:04:38;97967.75;;;25.89;51.10
56414;BME280;42318;48.452;19.526;2022-08-19T04:12:09;97975.81;;;25.85;51.52
56414;BME280;42318;48.452;19.526;2022-08-19T04:19:40;97976.13;;;25.84;51.59
56414;BME280;42318;48.452;19.526;2022-08-19T04:27:13;97963.81;;;25.81;51.72
56414;BME280;42318;48.452;19.526;2022-08-19T04:34:44;97982.41;;;25.84;51.42
56414;BME280;42318;48.452;19.526;2022-08-19T04:42:16;97971.44;;;25.84;51.42
56414;BME280;42318;48.452;19.526;2022-08-19T04:50:08;97969.31;;;25.81;51.88
56414;BME280;42318;48.452;19.526;2022-08-19T04:57:40;97971.66;;;25.74;51.96
56414;BME280;42318;48.452;19.526;2022-08-19T05:05:11;97976.53;;;25.77;52.23
56414;BME280;42318;48.452;19.526;2022-08-19T05:12:42;97963.09;;;25.76;52.70
56414;BME280;42318;48.452;19.526;2022-08-19T05:20:14;97973.16;;;25.80;52.34
56414;BME280;42318;48.452;19.526;2022-08-19T05:28:03;97977.66;;;25.76;52.44
56414;BME280;42318;48.452;19.526;2022-08-19T05:35:36;97962.91;;;25.72;52.64
56414;BME280;42318;48.452;19.526;2022-08-19T05:43:07;97971.66;;;25.74;52.69
56414;BME280;42318;48.452;19.526;2022-08-19T05:50:40;97982.53;;;25.79;52.68
56414;BME280;42318;48.452;19.526;2022-08-19T05:58:11;97981.41;;;25.80;52.72
56414;BME280;42318;48.452;19.526;2022-08-19T06:05:41;97997.75;;;25.85;52.76
56414;BME280;42318;48.452;19.526;2022-08-19T06:13:12;98000.41;;;25.90;52.66
56414;BME280;42318;48.452;19.526;2022-08-19T06:20:43;98010.75;;;25.93;51.99
56414;BME280;42318;48.452;19.526;2022-08-19T06:37:56;98009.75;;;25.89;52.38
56414;BME280;42318;48.452;19.526;2022-08-19T06:45:27;98002.31;;;25.90;52.37
56414;BME280;42318;48.452;19.526;2022-08-19T06:52:58;98012.88;;;25.96;52.42
56414;BME280;42318;48.452;19.526;2022-08-19T07:00:30;98022.75;;;25.97;52.41
56414;BME280;42318;48.452;19.526;2022-08-19T07:08:01;98020.00;;;25.97;52.59
56414;BME280;42318;48.452;19.526;2022-08-19T07:15:32;98013.41;;;25.98;52.98
56414;BME280;42318;48.452;19.526;2022-08-19T07:23:03;98010.34;;;26.00;52.55
56414;BME280;42318;48.452;19.526;2022-08-19T07:30:36;98013.91;;;26.01;53.10
56414;BME280;42318;48.452;19.526;2022-08-19T07:38:07;97991.44;;;25.98;53.12
56414;BME280;42318;48.452;19.526;2022-08-19T07:45:38;97992.25;;;25.99;53.07
56414;BME280;42318;48.452;19.526;2022-08-19T07:53:08;97988.19;;;25.96;53.02
56414;BME280;42318;48.452;19.526;2022-08-19T08:00:40;97985.94;;;25.98;52.87
56414;BME280;42318;48.452;19.526;2022-08-19T08:08:12;97991.88;;;26.06;52.81
56414;BME280;42318;48.452;19.526;2022-08-19T08:16:02;97974.97;;;25.98;53.15
56414;BME280;42318;48.452;19.526;2022-08-19T08:23:33;97978.44;;;26.04;53.23
56414;BME280;42318;48.452;19.526;2022-08-19T08:31:04;97976.81;;;26.03;53.18
56414;BME280;42318;48.452;19.526;2022-08-19T08:38:35;97977.81;;;26.07;52.99
56414;BME280;42318;48.452;19.526;2022-08-19T08:46:17;97975.59;;;26.09;52.96
56414;BME280;42318;48.452;19.526;2022-08-19T08:53:50;97974.16;;;26.12;52.85
56414;BME280;42318;48.452;19.526;2022-08-19T09:01:22;97971.41;;;26.12;52.74
56414;BME280;42318;48.452;19.526;2022-08-19T09:09:18;97965.41;;;26.10;52.81
56414;BME280;42318;48.452;19.526;2022-08-19T09:16:50;97965.72;;;26.08;53.01
56414;BME280;42318;48.452;19.526;2022-08-19T09:24:22;97970.47;;;26.16;52.58
56414;BME280;42318;48.452;19.526;2022-08-19T09:31:52;97962.44;;;26.20;52.48
56414;BME280;42318;48.452;19.526;2022-08-19T09:39:24;97967.31;;;26.23;52.86
56414;BME280;42318;48.452;19.526;2022-08-19T09:46:55;97959.06;;;26.23;52.57
56414;BME280;42318;48.452;19.526;2022-08-19T09:54:26;97961.50;;;26.24;52.72
56414;BME280;42318;48.452;19.526;2022-08-19T10:01:58;97949.91;;;26.27;52.70
56414;BME280;42318;48.452;19.526;2022-08-19T10:09:28;97929.25;;;26.30;52.51
56414;BME280;42318;48.452;19.526;2022-08-19T10:17:00;97917.94;;;26.32;52.59
56414;BME280;42318;48.452;19.526;2022-08-19T10:24:34;97914.09;;;26.33;52.65
56414;BME280;42318;48.452;19.526;2022-08-19T10:32:07;97915.72;;;26.34;52.44
56414;BME280;42318;48.452;19.526;2022-08-19T10:39:38;97918.16;;;26.35;52.35
56414;BME280;42318;48.452;19.526;2022-08-19T10:47:09;97922.03;;;26.34;52.32
56414;BME280;42318;48.452;19.526;2022-08-19T10:54:40;97921.22;;;26.34;52.36
56414;BME280;42318;48.452;19.526;2022-08-19T11:02:30;97916.91;;;26.41;52.53
56414;BME280;42318;48.452;19.526;2022-08-19T11:10:03;97907.56;;;26.42;52.70
56414;BME280;42318;48.452;19.526;2022-08-19T11:17:34;97902.06;;;26.42;52.53
56414;BME280;42318;48.452;19.526;2022-08-19T11:25:06;97885.00;;;26.45;52.46
56414;BME280;42318;48.452;19.526;2022-08-19T11:32:37;97870.53;;;26.40;52.41
56414;BME280;42318;48.452;19.526;2022-08-19T11:40:09;97867.38;;;26.46;52.49
56414;BME280;42318;48.452;19.526;2022-08-19T11:47:40;97860.75;;;26.47;52.33
56414;BME280;42318;48.452;19.526;2022-08-19T11:55:12;97862.38;;;26.48;52.32
56414;BME280;42318;48.452;19.526;2022-08-19T12:02:43;97857.38;;;26.50;52.46
56414;BME280;42318;48.452;19.526;2022-08-19T12:10:14;97855.94;;;26.53;51.94
56414;BME280;42318;48.452;19.526;2022-08-19T12:17:45;97844.16;;;26.52;52.20
56414;BME280;42318;48.452;19.526;2022-08-19T12:25:16;97843.19;;;26.57;52.22
56414;BME280;42318;48.452;19.526;2022-08-19T12:32:47;97843.03;;;26.53;52.16
56414;BME280;42318;48.452;19.526;2022-08-19T12:40:18;97847.56;;;26.58;52.11
56414;BME280;42318;48.452;19.526;2022-08-19T12:47:49;97838.22;;;26.59;52.22
56414;BME280;42318;48.452;19.526;2022-08-19T12:55:20;97832.41;;;26.60;52.08
56414;BME280;42318;48.452;19.526;2022-08-19T13:02:52;97821.41;;;26.60;52.08
56414;BME280;42318;48.452;19.526;2022-08-19T13:10:25;97803.31;;;26.59;52.19
56414;BME280;42318;48.452;19.526;2022-08-19T13:17:58;97808.97;;;26.63;52.08
56414;BME280;42318;48.452;19.526;2022-08-19T13:25:29;97794.44;;;26.63;52.12
56414;BME280;42318;48.452;19.526;2022-08-19T13:32:59;97803.47;;;26.63;52.10
56414;BME280;42318;48.452;19.526;2022-08-19T13:40:44;97802.84;;;26.66;52.02
56414;BME280;42318;48.452;19.526;2022-08-19T13:48:16;97788.63;;;26.64;52.37
56414;BME280;42318;48.452;19.526;2022-08-19T13:55:47;97782.31;;;26.64;52.14
56414;BME280;42318;48.452;19.526;2022-08-19T14:03:20;97784.91;;;26.69;52.13
56414;BME280;42318;48.452;19.526;2022-08-19T14:10:51;97772.00;;;26.69;52.34
56414;BME280;42318;48.452;19.526;2022-08-19T14:18:21;97767.78;;;26.72;52.11
56414;BME280;42318;48.452;19.526;2022-08-19T14:25:52;97771.34;;;26.72;52.14
56414;BME280;42318;48.452;19.526;2022-08-19T14:33:27;97770.22;;;26.73;52.33
56414;BME280;42318;48.452;19.526;2022-08-19T14:41:19;97768.28;;;26.74;52.42
56414;BME280;42318;48.452;19.526;2022-08-19T14:48:51;97747.44;;;26.73;52.58
56414;BME280;42318;48.452;19.526;2022-08-19T14:56:25;97742.75;;;26.73;52.63
56414;BME280;42318;48.452;19.526;2022-08-19T15:03:56;97736.59;;;26.76;52.44
56414;BME280;42318;48.452;19.526;2022-08-19T15:11:28;97722.06;;;26.76;52.46
56414;BME280;42318;48.452;19.526;2022-08-19T15:18:59;97715.44;;;26.77;52.53
56414;BME280;42318;48.452;19.526;2022-08-19T15:26:30;97697.31;;;26.76;52.33
56414;BME280;42318;48.452;19.526;2022-08-19T15:34:03;97698.94;;;26.77;52.66
56414;BME280;42318;48.452;19.526;2022-08-19T15:41:33;97691.81;;;26.76;52.45
56414;BME280;42318;48.452;19.526;2022-08-19T15:49:06;97687.94;;;26.77;52.50
56414;BME280;42318;48.452;19.526;2022-08-19T15:56:37;97691.19;;;26.79;52.72
56414;BME280;42318;48.452;19.526;2022-08-19T16:04:27;97682.59;;;26.72;52.83
56414;BME280;42318;48.452;19.526;2022-08-19T16:12:16;97712.38;;;26.78;52.76
56414;BME280;42318;48.452;19.526;2022-08-19T16:19:48;97734.03;;;26.80;52.60
56414;BME280;42318;48.452;19.526;2022-08-19T16:27:19;97733.38;;;26.74;52.77
56414;BME280;42318;48.452;19.526;2022-08-19T16:34:51;97757.16;;;26.79;52.72
56414;BME280;42318;48.452;19.526;2022-08-19T16:51:56;97737.09;;;26.78;52.79
56414;BME280;42318;48.452;19.526;2022-08-19T16:59:27;97746.97;;;26.79;52.62
56414;BME280;42318;48.452;19.526;2022-08-19T17:06:58;97745.50;;;26.82;52.88
56414;BME280;42318;48.452;19.526;2022-08-19T17:14:28;97743.09;;;26.80;52.79
56414;BME280;42318;48.452;19.526;2022-08-19T17:21:59;97782.69;;;26.79;52.99
56414;BME280;42318;48.452;19.526;2022-08-19T17:29:31;97780.44;;;26.81;53.01
56414;BME280;42318;48.452;19.526;2022-08-19T17:37:02;97796.44;;;26.79;52.78
56414;BME280;42318;48.452;19.526;2022-08-19T17:44:33;97821.84;;;26.85;52.88
56414;BME280;42318;48.452;19.526;2022-08-19T17:52:05;97836.38;;;26.85;52.80
56414;BME280;42318;48.452;19.526;2022-08-19T17:59:36;97825.84;;;26.79;52.60
56414;BME280;42318;48.452;19.526;2022-08-19T18:07:08;97819.88;;;26.77;52.75
56414;BME280;42318;48.452;19.526;2022-08-19T18:14:40;97815.84;;;26.83;52.67
56414;BME280;42318;48.452;19.526;2022-08-19T18:22:31;97832.84;;;26.85;52.56
56414;BME280;42318;48.452;19.526;2022-08-19T18:30:05;97842.69;;;26.86;52.74
56414;BME280;42318;48.452;19.526;2022-08-19T18:37:38;97830.88;;;26.85;52.52
56414;BME280;42318;48.452;19.526;2022-08-19T18:45:09;97830.56;;;26.87;52.71
56414;BME280;42318;48.452;19.526;2022-08-19T18:52:59;97838.72;;;26.92;52.74
56414;BME280;42318;48.452;19.526;2022-08-19T19:00:31;97832.41;;;26.91;48.45
56414;BME280;42318;48.452;19.526;2022-08-19T19:08:02;97832.25;;;26.97;46.28
56414;BME280;42318;48.452;19.526;2022-08-19T19:15:32;97837.75;;;26.97;46.00
56414;BME280;42318;48.452;19.526;2022-08-19T19:23:04;97849.44;;;27.02;44.78
56414;BME280;42318;48.452;19.526;2022-08-19T19:30:35;97849.63;;;27.06;44.21
56414;BME280;42318;48.452;19.526;2022-08-19T19:38:05;97843.66;;;27.12;43.63
56414;BME280;42318;48.452;19.526;2022-08-19T19:45:36;97850.97;;;27.17;42.70
56414;BME280;42318;48.452;19.526;2022-08-19T19:53:10;97841.59;;;27.18;42.79
56414;BME280;42318;48.452;19.526;2022-08-19T20:00:41;97852.41;;;27.14;42.39
56414;BME280;42318;48.452;19.526;2022-08-19T20:08:11;97883.28;;;27.11;42.64
56414;BME280;42318;48.452;19.526;2022-08-19T20:16:01;97916.13;;;27.08;42.25
56414;BME280;42318;48.452;19.526;2022-08-19T20:23:35;97905.44;;;27.06;42.47
56414;BME280;42318;48.452;19.526;2022-08-19T20:31:05;97906.56;;;27.05;43.72
56414;BME280;42318;48.452;19.526;2022-08-19T20:38:36;97958.97;;;27.09;44.77
56414;BME280;42318;48.452;19.526;2022-08-19T20:46:08;97957.31;;;26.99;45.56
56414;BME280;42318;48.452;19.526;2022-08-19T20:53:40;97953.53;;;26.95;45.34
56414;BME280;42318;48.452;19.526;2022-08-19T21:01:11;97944.41;;;26.86;44.86
56414;BME280;42318;48.452;19.526;2022-08-19T21:08:42;97948.28;;;26.85;45.10
56414;BME280;42318;48.452;19.526;2022-08-19T21:16:12;97970.06;;;26.81;44.60
56414;BME280;42318;48.452;19.526;2022-08-19T21:23:43;97953.78;;;26.85;44.81
56414;BME280;42318;48.452;19.526;2022-08-19T21:31:14;97961.84;;;26.81;44.23
56414;BME280;42318;48.452;19.526;2022-08-19T21:38:47;97957.91;;;26.74;44.83
56414;BME280;42318;48.452;19.526;2022-08-19T21:46:17;97907.44;;;26.70;44.83
56414;BME280;42318;48.452;19.526;2022-08-19T21:53:48;97902.75;;;26.70;45.83
56414;BME280;42318;48.452;19.526;2022-08-19T22:01:19;97920.81;;;26.63;46.00
56414;BME280;42318;48.452;19.526;2022-08-19T22:08:50;97940.31;;;26.52;45.70
56414;BME280;42318;48.452;19.526;2022-08-19T22:16:22;98032.03;;;26.65;46.06
56414;BME280;42318;48.452;19.526;2022-08-19T22:23:53;97989.44;;;26.76;45.81
56414;BME280;42318;48.452;19.526;2022-08-19T22:31:24;98016.66;;;26.64;45.58
56414;BME280;42318;48.452;19.526;2022-08-19T22:38:55;98011.69;;;26.66;45.47
56414;BME280;42318;48.452;19.526;2022-08-19T22:46:25;98017.56;;;26.73;45.66
56414;BME280;42318;48.452;19.526;2022-08-19T22:53:56;98014.94;;;26.68;45.96
56414;BME280;42318;48.452;19.526;2022-08-19T23:01:27;97993.13;;;26.49;46.57
56414;BME280;42318;48.452;19.526;2022-08-19T23:08:58;97990.16;;;26.32;47.65
56414;BME280;42318;48.452;19.526;2022-08-19T23:16:29;97987.16;;;26.20;48.61
56414;BME280;42318;48.452;19.526;2022-08-19T23:24:00;97979.59;;;26.25;49.17
56414;BME280;42318;48.452;19.526;2022-08-19T23:31:31;97971.84;;;26.41;49.41
56414;BME280;42318;48.452;19.526;2022-08-19T23:39:02;97965.72;;;26.58;48.87
56414;BME280;42318;48.452;19.526;2022-08-19T23:46:33;97957.16;;;26.59;48.84
56414;BME280;42318;48.452;19.526;2022-08-19T23:54:05;97923.50;;;26.54;48.76
